createdAt,value
2019-06-20T00:00:08.433Z,9.10
2019-06-20T00:02:40.003Z,10.80
2019-06-20T00:05:09.996Z,11.45
2019-06-20T00:07:40.002Z,12.55
2019-06-20T00:10:10.057Z,10.75
2019-06-20T00:12:40.042Z,10.88
2019-06-20T00:15:10.078Z,10.48
2019-06-20T00:17:40.059Z,9.55
2019-06-20T00:20:10.111Z,11.22
2019-06-20T00:22:41.112Z,9.33
2019-06-20T00:25:11.053Z,10.50
2019-06-20T00:27:41.188Z,9.45
2019-06-20T00:30:11.139Z,10.05
2019-06-20T00:32:41.185Z,11.60
2019-06-20T00:35:12.220Z,9.23
2019-06-20T00:37:42.176Z,10.68
2019-06-20T00:40:12.182Z,8.80
2019-06-20T00:42:42.142Z,9.60
2019-06-20T00:45:12.106Z,8.78
2019-06-20T00:47:42.142Z,9.78
2019-06-20T00:50:12.125Z,9.70
2019-06-20T00:52:42.165Z,9.53
2019-06-20T00:55:13.153Z,9.65
2019-06-20T00:57:43.169Z,10.72
2019-06-20T01:00:13.124Z,9.63
2019-06-20T01:02:43.173Z,10.35
2019-06-20T01:05:13.128Z,10.70
2019-06-20T01:07:43.077Z,9.63
2019-06-20T01:10:13.067Z,9.65
2019-06-20T01:12:43.015Z,10.03
2019-06-20T01:15:12.986Z,10.40
2019-06-20T01:17:42.956Z,9.15
2019-06-20T01:20:12.954Z,9.23
2019-06-20T01:22:43.902Z,10.65
2019-06-20T01:25:13.899Z,9.48
2019-06-20T01:27:43.869Z,9.63
2019-06-20T01:30:13.824Z,9.25
2019-06-20T01:32:43.781Z,10.05
2019-06-20T01:35:13.770Z,8.45
2019-06-20T01:37:43.741Z,10.23
2019-06-20T01:40:13.783Z,9.68
2019-06-20T01:42:43.762Z,10.08
2019-06-20T01:45:13.714Z,9.23
2019-06-20T01:47:43.668Z,9.88
2019-06-20T01:50:13.688Z,11.55
2019-06-20T01:52:43.677Z,10.63
2019-06-20T01:55:13.691Z,9.00
2019-06-20T01:57:43.650Z,9.23
2019-06-20T02:00:22.868Z,8.53
2019-06-20T02:02:52.861Z,8.38
2019-06-20T02:05:23.146Z,9.13
2019-06-20T02:07:53.107Z,9.15
2019-06-20T02:10:23.077Z,9.15
2019-06-20T02:12:53.102Z,9.18
2019-06-20T02:15:23.114Z,8.15
2019-06-20T02:17:53.210Z,9.85
2019-06-20T02:20:35.396Z,8.38
2019-06-20T02:23:06.466Z,10.80
2019-06-20T02:25:36.490Z,9.85
2019-06-20T02:28:06.454Z,8.80
2019-06-20T02:30:36.487Z,9.25
2019-06-20T02:33:06.441Z,9.03
2019-06-20T02:35:36.512Z,10.15
2019-06-20T02:38:06.540Z,8.43
2019-06-20T02:40:36.594Z,8.33
2019-06-20T02:43:06.613Z,9.00
2019-06-20T02:45:36.647Z,8.93
2019-06-20T02:48:06.642Z,8.65
2019-06-20T02:50:36.668Z,8.88
2019-06-20T02:53:06.618Z,9.38
2019-06-20T02:55:36.580Z,9.20
2019-06-20T02:58:06.647Z,8.45
2019-06-20T03:00:54.165Z,9.25
2019-06-20T03:03:24.179Z,9.58
2019-06-20T03:05:54.134Z,9.78
2019-06-20T03:08:24.113Z,8.68
2019-06-20T03:10:54.074Z,8.88
2019-06-20T03:13:24.153Z,10.50
2019-06-20T03:15:54.151Z,8.63
2019-06-20T03:18:24.098Z,9.23
2019-06-20T03:20:54.071Z,8.23
2019-06-20T03:23:25.106Z,9.05
2019-06-20T03:25:55.062Z,8.88
2019-06-20T03:28:25.111Z,9.10
2019-06-20T03:30:55.054Z,7.95
2019-06-20T03:33:25.011Z,9.73
2019-06-20T03:35:54.894Z,8.38
2019-06-20T03:38:24.848Z,8.70
2019-06-20T03:40:54.867Z,9.03
2019-06-20T03:43:24.838Z,9.05
2019-06-20T03:45:54.837Z,8.53
2019-06-20T03:48:24.789Z,8.15
2019-06-20T03:50:54.769Z,7.83
2019-06-20T03:53:24.722Z,9.10
2019-06-20T03:55:54.653Z,8.70
2019-06-20T03:58:24.663Z,8.78
2019-06-20T04:00:54.693Z,10.05
2019-06-20T04:03:24.674Z,9.18
2019-06-20T04:05:54.703Z,8.35
2019-06-20T04:08:24.671Z,7.78
2019-06-20T04:10:54.783Z,8.55
2019-06-20T04:13:25.954Z,8.48
2019-06-20T04:15:55.962Z,8.10
2019-06-20T04:18:25.916Z,8.88
2019-06-20T04:20:55.983Z,7.20
2019-06-20T04:23:27.052Z,7.80
2019-06-20T04:25:57.367Z,8.75
2019-06-20T04:28:27.314Z,7.97
2019-06-20T04:30:57.269Z,8.78
2019-06-20T04:33:27.400Z,8.25
2019-06-20T04:35:57.346Z,9.98
2019-06-20T04:38:27.295Z,9.90
2019-06-20T04:40:57.237Z,9.45
2019-06-20T04:43:27.189Z,9.23
2019-06-20T04:46:08.629Z,8.68
2019-06-20T04:48:38.603Z,8.00
2019-06-20T04:51:08.633Z,7.83
2019-06-20T04:53:38.662Z,8.95
2019-06-20T04:56:08.614Z,8.63
2019-06-20T04:58:38.623Z,7.65
2019-06-20T05:01:08.578Z,9.45
2019-06-20T05:03:38.546Z,8.33
2019-06-20T05:06:08.608Z,9.53
2019-06-20T05:08:40.265Z,9.13
2019-06-20T05:11:10.214Z,8.13
2019-06-20T05:13:40.162Z,8.93
2019-06-20T05:16:10.181Z,9.13
2019-06-20T05:18:40.181Z,8.38
2019-06-20T05:21:12.582Z,8.95
2019-06-20T05:23:43.537Z,8.63
2019-06-20T05:26:13.479Z,7.50
2019-06-20T05:28:43.433Z,7.83
2019-06-20T05:31:13.383Z,8.25
2019-06-20T05:33:43.335Z,8.23
2019-06-20T05:36:13.283Z,8.35
2019-06-20T05:38:43.313Z,8.38
2019-06-20T05:41:13.334Z,7.80
2019-06-20T05:43:43.378Z,7.60
2019-06-20T05:46:13.592Z,7.70
2019-06-20T05:48:43.606Z,7.78
2019-06-20T05:51:13.567Z,9.03
2019-06-20T05:53:43.681Z,7.83
2019-06-20T05:56:13.692Z,8.53
2019-06-20T05:58:43.731Z,8.55
2019-06-20T06:01:13.775Z,7.40
2019-06-20T06:03:43.739Z,7.40
2019-06-20T06:06:13.698Z,9.85
2019-06-20T06:08:43.716Z,8.05
2019-06-20T06:11:13.713Z,7.45
2019-06-20T06:13:43.721Z,7.60
2019-06-20T06:16:25.580Z,8.75
2019-06-20T06:18:45.497Z,8.48
2019-06-20T06:21:15.448Z,14.47
2019-06-20T06:23:45.470Z,12.05
2019-06-20T06:26:15.507Z,11.45
2019-06-20T06:28:45.591Z,12.10
2019-06-20T06:31:15.579Z,10.93
2019-06-20T06:33:45.565Z,17.05
2019-06-20T06:36:15.640Z,11.83
2019-06-20T06:38:45.736Z,13.00
2019-06-20T06:41:15.810Z,12.47
2019-06-20T06:43:45.866Z,15.08
2019-06-20T06:46:16.905Z,12.20
2019-06-20T06:48:46.930Z,15.88
2019-06-20T06:51:16.984Z,17.27
2019-06-20T06:53:47.063Z,15.98
2019-06-20T06:56:17.137Z,13.90
2019-06-20T06:58:47.217Z,14.18
2019-06-20T07:01:17.226Z,12.07
2019-06-20T07:03:47.198Z,14.60
2019-06-20T07:06:17.312Z,16.45
2019-06-20T07:08:47.494Z,16.23
2019-06-20T07:11:17.537Z,20.15
2019-06-20T07:13:47.535Z,17.87
2019-06-20T07:16:17.536Z,17.42
2019-06-20T07:18:47.500Z,17.05
2019-06-20T07:21:17.691Z,19.07
2019-06-20T07:23:47.656Z,23.22
2019-06-20T07:26:17.615Z,19.25
2019-06-20T07:28:47.643Z,20.55
2019-06-20T07:31:17.798Z,18.92
2019-06-20T07:33:47.838Z,18.60
2019-06-20T07:36:17.883Z,20.92
2019-06-20T07:38:47.874Z,18.92
2019-06-20T07:41:17.821Z,19.15
2019-06-20T07:43:47.833Z,15.60
2019-06-20T07:46:17.812Z,17.70
2019-06-20T07:48:47.859Z,19.17
2019-06-20T07:51:17.857Z,18.65
2019-06-20T07:53:47.819Z,25.95
2019-06-20T07:56:17.855Z,19.98
2019-06-20T07:58:47.866Z,17.62
2019-06-20T08:01:17.823Z,18.80
2019-06-20T08:03:47.891Z,18.02
2019-06-20T08:06:17.919Z,20.77
2019-06-20T08:08:47.890Z,20.80
2019-06-20T08:11:17.847Z,25.60
2019-06-20T08:13:47.797Z,20.92
2019-06-20T08:16:17.767Z,29.07
2019-06-20T08:18:47.726Z,22.00
2019-06-20T08:21:17.693Z,22.13
2019-06-20T08:23:47.827Z,19.10
2019-06-20T08:26:17.782Z,20.62
2019-06-20T08:28:47.734Z,19.92
2019-06-20T08:31:17.707Z,24.95
2019-06-20T08:33:47.663Z,25.25
2019-06-20T08:36:17.629Z,18.42
2019-06-20T08:38:47.659Z,19.05
2019-06-20T08:41:17.620Z,18.30
2019-06-20T08:43:47.579Z,17.42
2019-06-20T08:46:17.543Z,21.80
2019-06-20T08:48:47.583Z,17.87
2019-06-20T08:51:17.589Z,22.10
2019-06-20T08:53:47.546Z,16.80
2019-06-20T08:56:17.534Z,16.02
2019-06-20T08:58:47.536Z,18.02
2019-06-20T09:01:17.505Z,15.15
2019-06-20T09:03:47.587Z,16.42
2019-06-20T09:06:17.562Z,19.20
2019-06-20T09:08:47.535Z,17.60
2019-06-20T09:11:17.486Z,14.23
2019-06-20T09:13:47.489Z,15.78
2019-06-20T09:16:24.467Z,15.48
2019-06-20T09:18:49.198Z,15.28
2019-06-20T09:21:19.161Z,15.83
2019-06-20T09:23:49.144Z,18.60
2019-06-20T09:26:19.163Z,16.32
2019-06-20T09:28:49.123Z,13.28
2019-06-20T09:31:19.088Z,14.30
2019-06-20T09:33:49.066Z,14.75
2019-06-20T09:36:19.214Z,14.18
2019-06-20T09:38:49.163Z,14.13
2019-06-20T09:41:19.222Z,13.55
2019-06-20T09:43:50.086Z,17.67
2019-06-20T09:46:21.169Z,13.88
2019-06-20T09:48:52.773Z,13.55
2019-06-20T09:51:22.885Z,16.25
2019-06-20T09:53:53.895Z,14.13
2019-06-20T09:56:24.035Z,12.25
2019-06-20T09:58:55.232Z,12.88
2019-06-20T10:01:25.399Z,13.62
2019-06-20T10:03:56.692Z,11.80
2019-06-20T10:06:26.883Z,13.32
2019-06-20T10:08:56.834Z,13.62
2019-06-20T10:11:26.792Z,13.93
2019-06-20T10:13:56.741Z,12.75
2019-06-20T10:16:26.750Z,11.95
2019-06-20T10:18:56.712Z,14.10
2019-06-20T10:21:26.751Z,13.50
2019-06-20T10:23:56.701Z,12.37
2019-06-20T10:26:26.666Z,11.83
2019-06-20T10:28:57.402Z,11.33
2019-06-20T10:31:27.575Z,14.50
2019-06-20T10:33:57.522Z,12.45
2019-06-20T10:36:27.672Z,11.93
2019-06-20T10:38:57.848Z,11.88
2019-06-20T10:41:27.853Z,12.30
2019-06-20T10:43:57.907Z,14.65
2019-06-20T10:46:27.937Z,13.70
2019-06-20T10:48:57.974Z,13.25
2019-06-20T10:51:45.957Z,13.35
2019-06-20T10:54:15.974Z,11.80
2019-06-20T10:56:47.192Z,11.70
2019-06-20T10:59:17.386Z,12.55
2019-06-20T11:01:48.368Z,11.15
2019-06-20T11:04:18.555Z,10.65
2019-06-20T11:06:49.617Z,11.25
2019-06-20T11:09:19.807Z,11.53
2019-06-20T11:11:50.003Z,11.93
2019-06-20T11:14:20.034Z,11.73
2019-06-20T11:16:50.025Z,13.93
2019-06-20T11:19:19.986Z,10.88
2019-06-20T11:21:49.938Z,11.20
2019-06-20T11:24:19.945Z,13.20
2019-06-20T11:26:50.014Z,10.25
2019-06-20T11:29:19.973Z,11.43
2019-06-20T11:31:49.943Z,11.43
2019-06-20T11:34:20.930Z,10.13
2019-06-20T11:36:51.115Z,12.40
2019-06-20T11:39:22.875Z,10.00
2019-06-20T11:41:52.826Z,9.43
2019-06-20T11:44:23.923Z,13.20
2019-06-20T11:46:54.463Z,9.80
2019-06-20T11:49:24.499Z,12.20
2019-06-20T11:51:54.451Z,9.38
2019-06-20T11:54:24.449Z,10.78
2019-06-20T11:56:54.415Z,10.68
2019-06-20T11:59:24.409Z,10.58
2019-06-20T12:01:54.376Z,10.32
2019-06-20T12:04:24.397Z,10.30
2019-06-20T12:06:54.458Z,10.32
2019-06-20T12:09:24.413Z,9.65
2019-06-20T12:11:54.368Z,10.35
2019-06-20T12:14:24.327Z,11.60
2019-06-20T12:16:54.297Z,10.48
2019-06-20T12:19:24.328Z,13.08
2019-06-20T12:21:54.299Z,9.00
2019-06-20T12:24:24.254Z,10.43
2019-06-20T12:26:54.226Z,10.98
2019-06-20T12:29:24.257Z,10.55
2019-06-20T12:31:54.161Z,9.43
2019-06-20T12:34:24.410Z,9.45
2019-06-20T12:36:54.379Z,9.73
2019-06-20T12:39:24.437Z,8.68
2019-06-20T12:41:54.420Z,10.30
2019-06-20T12:44:24.422Z,8.90
2019-06-20T12:46:54.510Z,10.13
2019-06-20T12:49:24.633Z,9.75
2019-06-20T12:51:55.715Z,10.82
2019-06-20T12:54:25.742Z,9.15
2019-06-20T12:56:55.722Z,9.23
2019-06-20T12:59:25.723Z,9.43
2019-06-20T13:01:55.669Z,9.53
2019-06-20T13:04:25.655Z,8.33
2019-06-20T13:06:55.830Z,8.33
2019-06-20T13:09:25.859Z,9.70
2019-06-20T13:11:55.889Z,8.73
2019-06-20T13:14:25.875Z,8.05
2019-06-20T13:16:55.895Z,8.60
2019-06-20T13:19:25.915Z,10.80
2019-06-20T13:21:56.063Z,9.00
2019-06-20T13:24:26.029Z,9.25
2019-06-20T13:26:55.984Z,10.32
2019-06-20T13:29:25.989Z,10.70
2019-06-20T13:32:04.033Z,8.55
2019-06-20T13:34:27.680Z,8.35
2019-06-20T13:36:59.519Z,8.80
2019-06-20T13:39:29.491Z,8.33
2019-06-20T13:41:59.449Z,7.90
2019-06-20T13:44:29.531Z,9.63
2019-06-20T13:46:59.484Z,8.40
2019-06-20T13:49:29.527Z,7.62
2019-06-20T13:51:59.496Z,9.43
2019-06-20T13:54:29.475Z,7.83
2019-06-20T13:56:59.452Z,8.58
2019-06-20T13:59:29.506Z,7.83
2019-06-20T14:02:06.509Z,8.38
2019-06-20T14:04:31.218Z,8.65
2019-06-20T14:07:01.196Z,8.75
2019-06-20T14:09:31.232Z,8.20
2019-06-20T14:12:01.203Z,7.95
2019-06-20T14:14:31.150Z,8.50
2019-06-20T14:17:01.127Z,8.73
2019-06-20T14:19:31.125Z,7.95
2019-06-20T14:22:01.128Z,7.87
2019-06-20T14:24:31.557Z,8.83
2019-06-20T14:27:02.383Z,7.33
2019-06-20T14:29:32.542Z,8.53
2019-06-20T14:32:02.520Z,8.33
2019-06-20T14:34:32.598Z,7.25
2019-06-20T14:37:02.563Z,8.88
2019-06-20T14:39:34.212Z,7.85
2019-06-20T14:42:04.274Z,7.65
2019-06-20T14:44:34.233Z,8.03
2019-06-20T14:47:04.176Z,7.67
2019-06-20T14:49:34.153Z,7.60
2019-06-20T14:52:04.178Z,7.33
2019-06-20T14:54:34.197Z,7.25
2019-06-20T14:57:04.282Z,7.62
2019-06-20T14:59:35.521Z,6.80
2019-06-20T15:02:05.659Z,7.45
2019-06-20T15:04:35.695Z,7.53
2019-06-20T15:07:05.687Z,7.62
2019-06-20T15:09:35.651Z,8.63
2019-06-20T15:12:05.616Z,6.97
2019-06-20T15:14:35.587Z,7.03
2019-06-20T15:17:05.534Z,7.12
2019-06-20T15:19:35.519Z,8.30
2019-06-20T15:22:05.450Z,7.53
2019-06-20T15:24:35.518Z,7.55
2019-06-20T15:27:05.554Z,7.17
2019-06-20T15:29:35.503Z,6.60
2019-06-20T15:32:05.608Z,7.20
2019-06-20T15:34:35.624Z,7.30
2019-06-20T15:37:06.423Z,7.55
2019-06-20T15:39:36.594Z,7.15
2019-06-20T15:42:06.561Z,7.12
2019-06-20T15:44:36.598Z,7.10
2019-06-20T15:47:06.626Z,7.03
2019-06-20T15:49:36.634Z,6.90
2019-06-20T15:52:06.586Z,7.05
2019-06-20T15:54:36.598Z,6.85
2019-06-20T15:57:06.628Z,7.28
2019-06-20T15:59:36.602Z,7.00
2019-06-20T16:02:06.565Z,7.42
2019-06-20T16:04:36.613Z,8.33
2019-06-20T16:07:06.657Z,6.65
2019-06-20T16:09:37.222Z,7.53
2019-06-20T16:12:07.277Z,6.20
2019-06-20T16:14:37.352Z,6.97
2019-06-20T16:17:07.379Z,7.03
2019-06-20T16:19:37.337Z,7.08
2019-06-20T16:22:07.326Z,7.30
2019-06-20T16:24:37.342Z,7.42
2019-06-20T16:27:07.374Z,6.87
2019-06-20T16:29:37.386Z,7.55
2019-06-20T16:32:07.419Z,6.75
2019-06-20T16:34:37.390Z,7.28
2019-06-20T16:37:10.358Z,7.70
2019-06-20T16:39:39.010Z,7.08
2019-06-20T16:42:08.968Z,6.92
2019-06-20T16:44:39.019Z,6.17
2019-06-20T16:47:09.036Z,7.28
2019-06-20T16:49:38.994Z,6.67
2019-06-20T16:52:08.954Z,6.25
2019-06-20T16:54:38.985Z,6.40
2019-06-20T16:57:08.939Z,6.62
2019-06-20T16:59:39.027Z,6.62
2019-06-20T17:02:08.998Z,5.95
2019-06-20T17:04:38.943Z,6.55
2019-06-20T17:07:08.913Z,6.10
2019-06-20T17:09:38.857Z,6.42
2019-06-20T17:12:11.191Z,6.10
2019-06-20T17:14:41.585Z,6.12
2019-06-20T17:17:11.565Z,6.80
2019-06-20T17:19:42.311Z,6.33
2019-06-20T17:22:12.378Z,5.92
2019-06-20T17:24:42.331Z,6.33
2019-06-20T17:27:12.370Z,6.30
2019-06-20T17:29:42.330Z,6.47
2019-06-20T17:32:12.297Z,6.47
2019-06-20T17:34:43.310Z,5.78
2019-06-20T17:37:13.283Z,6.03
2019-06-20T17:39:43.238Z,5.87
2019-06-20T17:42:13.210Z,6.00
2019-06-20T17:44:43.198Z,6.20
2019-06-20T17:47:13.187Z,6.00
2019-06-20T17:49:43.269Z,5.90
2019-06-20T17:52:13.215Z,6.22
2019-06-20T17:54:43.165Z,6.00
2019-06-20T17:57:13.124Z,6.00
2019-06-20T17:59:43.163Z,5.67
2019-06-20T18:02:13.142Z,6.20
2019-06-20T18:04:43.152Z,6.45
2019-06-20T18:07:13.150Z,5.87
2019-06-20T18:09:43.108Z,5.62
2019-06-20T18:12:14.759Z,6.50
2019-06-20T18:14:44.751Z,6.03
2019-06-20T18:17:14.790Z,6.17
2019-06-20T18:19:44.829Z,6.08
2019-06-20T18:22:14.880Z,6.70
2019-06-20T18:24:44.897Z,5.95
2019-06-20T18:27:14.878Z,5.90
2019-06-20T18:29:44.924Z,5.87
2019-06-20T18:32:14.960Z,5.83
2019-06-20T18:35:00.497Z,5.70
2019-06-20T18:37:30.500Z,5.45
2019-06-20T18:39:48.484Z,5.97
2019-06-20T18:42:18.509Z,5.58
2019-06-20T18:44:49.659Z,6.03
2019-06-20T18:47:21.916Z,5.62
2019-06-20T18:49:51.354Z,5.50
2019-06-20T18:52:21.432Z,6.05
2019-06-20T18:54:51.415Z,5.67
2019-06-20T18:57:21.406Z,5.58
2019-06-20T18:59:51.378Z,5.85
2019-06-20T19:02:21.402Z,5.80
2019-06-20T19:04:51.382Z,6.25
2019-06-20T19:07:21.354Z,6.03
2019-06-20T19:09:51.442Z,5.85
2019-06-20T19:12:21.407Z,5.60
2019-06-20T19:14:51.403Z,5.67
2019-06-20T19:17:22.521Z,5.58
2019-06-20T19:19:52.711Z,5.50
2019-06-20T19:22:22.954Z,5.65
2019-06-20T19:24:52.954Z,5.42
2019-06-20T19:27:22.954Z,5.80
2019-06-20T19:29:52.939Z,5.87
2019-06-20T19:32:22.966Z,5.72
2019-06-20T19:35:02.271Z,5.72
2019-06-20T19:37:24.637Z,5.70
2019-06-20T19:39:54.703Z,5.92
2019-06-20T19:42:24.740Z,6.25
2019-06-20T19:44:54.779Z,5.22
2019-06-20T19:47:24.838Z,6.45
2019-06-20T19:49:54.868Z,5.53
2019-06-20T19:52:25.904Z,5.33
2019-06-20T19:54:56.040Z,7.15
2019-06-20T19:57:26.087Z,5.35
2019-06-20T19:59:56.054Z,5.60
2019-06-20T20:02:26.041Z,5.30
2019-06-20T20:04:56.151Z,5.87
2019-06-20T20:07:26.122Z,5.83
2019-06-20T20:09:56.117Z,6.47
2019-06-20T20:12:26.207Z,5.83
2019-06-20T20:14:56.174Z,5.60
2019-06-20T20:17:26.175Z,5.62
2019-06-20T20:19:56.212Z,5.33
2019-06-20T20:22:26.174Z,5.03
2019-06-20T20:24:56.154Z,5.60
2019-06-20T20:27:26.155Z,5.65
2019-06-20T20:29:56.181Z,5.37
2019-06-20T20:32:26.153Z,5.40
2019-06-20T20:34:56.150Z,5.67
2019-06-20T20:37:26.111Z,4.87
2019-06-20T20:39:56.183Z,5.30
2019-06-20T20:42:26.176Z,5.58
2019-06-20T20:44:56.215Z,5.03
2019-06-20T20:47:28.392Z,4.80
2019-06-20T20:49:57.862Z,5.25
2019-06-20T20:52:28.943Z,5.40
2019-06-20T20:54:58.887Z,5.97
2019-06-20T20:57:28.898Z,4.97
2019-06-20T20:59:58.852Z,4.55
2019-06-20T21:02:28.822Z,5.50
2019-06-20T21:04:58.810Z,4.72
2019-06-20T21:07:28.833Z,5.58
2019-06-20T21:09:59.781Z,5.10
2019-06-20T21:12:29.780Z,4.92
2019-06-20T21:14:59.771Z,5.28
2019-06-20T21:17:29.782Z,4.95
2019-06-20T21:19:59.879Z,6.35
2019-06-20T21:22:29.934Z,4.85
2019-06-20T21:24:59.928Z,4.92
2019-06-20T21:27:30.040Z,6.10
2019-06-20T21:30:00.051Z,5.47
2019-06-20T21:32:30.070Z,5.20
2019-06-20T21:35:00.083Z,5.53
2019-06-20T21:37:30.155Z,4.83
2019-06-20T21:40:00.163Z,7.03
2019-06-20T21:42:30.152Z,4.70
2019-06-20T21:45:00.108Z,4.85
2019-06-20T21:47:30.134Z,5.10
2019-06-20T21:50:01.074Z,4.53
2019-06-20T21:52:31.232Z,4.83
2019-06-20T21:55:01.226Z,5.03
2019-06-20T21:57:31.205Z,4.83
2019-06-20T22:00:01.265Z,5.00
2019-06-20T22:02:32.918Z,5.08
2019-06-20T22:05:02.975Z,4.95
2019-06-20T22:07:33.640Z,4.97
2019-06-20T22:10:03.720Z,5.35
2019-06-20T22:12:33.830Z,4.97
2019-06-20T22:15:03.829Z,5.10
2019-06-20T22:17:34.290Z,4.80
2019-06-20T22:20:05.077Z,4.50
2019-06-20T22:22:35.122Z,4.95
2019-06-20T22:25:05.724Z,4.83
2019-06-20T22:27:35.763Z,4.40
2019-06-20T22:30:07.664Z,6.92
2019-06-20T22:32:37.789Z,5.65
2019-06-20T22:35:07.823Z,5.67
2019-06-20T22:37:37.870Z,4.75
2019-06-20T22:40:09.322Z,5.20
2019-06-20T22:42:39.303Z,4.62
2019-06-20T22:45:09.421Z,4.67
2019-06-20T22:47:39.460Z,4.53
2019-06-20T22:50:10.220Z,4.90
2019-06-20T22:52:40.298Z,4.65
2019-06-20T22:55:10.244Z,4.25
2019-06-20T22:57:40.285Z,5.20
2019-06-20T23:00:10.310Z,4.37
2019-06-20T23:02:40.340Z,4.72
2019-06-20T23:05:10.379Z,4.45
2019-06-20T23:07:40.510Z,4.40
2019-06-20T23:10:11.445Z,4.30
2019-06-20T23:12:41.649Z,4.42
2019-06-20T23:15:12.722Z,4.28
2019-06-20T23:17:42.759Z,4.70
2019-06-20T23:20:13.432Z,4.45
2019-06-20T23:22:43.497Z,4.55
2019-06-20T23:25:14.157Z,4.35
2019-06-20T23:27:44.154Z,5.12
2019-06-20T23:30:14.172Z,5.67
2019-06-20T23:32:44.138Z,4.30
2019-06-20T23:35:14.158Z,4.47
2019-06-20T23:37:44.198Z,4.22
2019-06-20T23:40:15.295Z,4.30
2019-06-20T23:42:45.375Z,4.45
2019-06-20T23:45:15.407Z,4.70
2019-06-20T23:47:45.487Z,4.60
2019-06-20T23:50:21.374Z,4.37
2019-06-20T23:52:56.525Z,4.35
2019-06-20T23:55:26.488Z,4.12
2019-06-20T23:57:56.438Z,4.20
